Skip Navigation Links Skip Navigation Links

Current Weather

Charleroi / Gosselies, Belgium

For information only: do not use for flight planning or navigation.
Latest weather
Observation time Monday, October 18, 2021 9:20 PM CEST
Local time Monday, October 18, 2021 9:36 PM CEST
Flight conditions Visual Meteorological Conditions
Winds
Wind direction South (190°)
Wind speed 10 mph
Visibility 6.2 mi.
Sky condition
Ceiling unlimited
Sky clear
Temperature 57°F
Dewpoint 50°F
Altimeter 30.15 in.Hg
Derived measurements
Relative humidity 77%
Density altitude -19 ft.
Remarks
Ceiling and visibility OK.
No significant changes expected in the next two hours.
METAR EBCI 181920Z 19009KT CAVOK 14/10 Q1021 NOSIG

Settings

Location code

InnerDrive.Weather 4.0.6770.0 Release CLR 4.0.30319.42000
Copyright ©2018 Inner Drive Technology. All rights reserved. Portions Copyright ©1986-2018 David Braverman.

Find weather

Site navigation


Skip Navigation Links

Place info

Page info

PayPal - The safer, easier way to pay online!

Return home.

Copyright ©2021 Inner Drive Technology. Purveyors of fine, hand-crafted computer software. Page printed 2021-10-18T19:36:09 UTC.